createdAt,value
2023-04-20T00:01:01.478Z,99252.00
2023-04-20T00:03:28.641Z,99257.19
2023-04-20T00:05:55.775Z,99245.53
2023-04-20T00:08:22.398Z,99244.53
2023-04-20T00:10:49.036Z,99238.44
2023-04-20T00:13:16.112Z,99234.00
2023-04-20T00:15:42.850Z,99237.19
2023-04-20T00:18:09.602Z,99222.63
2023-04-20T00:20:36.849Z,99226.53
2023-04-20T00:23:03.806Z,99216.34
2023-04-20T00:25:31.796Z,99221.47
2023-04-20T00:27:58.468Z,99216.34
2023-04-20T00:30:25.161Z,99211.06
2023-04-20T00:32:52.014Z,99220.59
2023-04-20T00:35:18.800Z,99209.44
2023-04-20T00:37:45.608Z,99206.81
2023-04-20T00:40:12.449Z,99206.56
2023-04-20T00:42:40.994Z,99197.84
2023-04-20T00:45:08.507Z,99197.69
2023-04-20T00:47:37.372Z,99195.16
2023-04-20T00:50:04.782Z,99190.88
2023-04-20T00:52:32.563Z,99186.47
2023-04-20T00:54:59.508Z,99181.28
2023-04-20T00:57:26.862Z,99182.13
2023-04-20T00:59:53.562Z,99183.19
2023-04-20T01:02:22.791Z,99180.22
2023-04-20T01:04:49.943Z,99170.59
2023-04-20T01:07:16.897Z,99167.31
2023-04-20T01:09:43.685Z,99165.66
2023-04-20T01:12:11.667Z,99168.91
2023-04-20T01:14:38.412Z,99164.41
2023-04-20T01:17:06.074Z,99166.00
2023-04-20T01:19:33.405Z,99167.97
2023-04-20T01:22:02.328Z,99164.31
2023-04-20T01:24:29.023Z,99153.53
2023-04-20T01:26:56.361Z,99157.53
2023-04-20T01:29:23.059Z,99148.78
2023-04-20T01:31:49.789Z,99148.72
2023-04-20T01:34:17.723Z,99147.44
2023-04-20T01:36:45.713Z,99149.56
2023-04-20T01:39:12.622Z,99146.16
2023-04-20T01:41:39.768Z,99151.19
2023-04-20T01:44:06.460Z,99144.34
2023-04-20T01:46:33.180Z,99147.28
2023-04-20T01:48:59.949Z,99139.78
2023-04-20T01:51:27.765Z,99129.38
2023-04-20T01:53:54.640Z,99129.78
2023-04-20T01:56:21.370Z,99134.88
2023-04-20T01:58:49.323Z,99130.38
2023-04-20T02:01:16.144Z,99129.78
2023-04-20T02:03:43.366Z,99139.88
2023-04-20T02:06:10.320Z,99143.81
2023-04-20T02:08:43.207Z,99142.03
2023-04-20T02:11:10.147Z,99146.75
2023-04-20T02:13:37.141Z,99143.94
2023-04-20T02:16:04.048Z,99138.78
2023-04-20T02:18:32.921Z,99127.16
2023-04-20T02:21:01.277Z,99128.59
2023-04-20T02:23:28.309Z,99125.78
2023-04-20T02:25:55.641Z,99120.03
2023-04-20T02:28:22.397Z,99114.28
2023-04-20T02:30:49.116Z,99118.84
2023-04-20T02:33:15.819Z,99111.44
2023-04-20T02:35:42.478Z,99106.25
2023-04-20T02:38:10.979Z,99119.66
2023-04-20T02:40:39.092Z,99114.09
2023-04-20T02:43:06.152Z,99115.34
2023-04-20T02:45:33.626Z,99113.31
2023-04-20T02:48:00.780Z,99108.78
2023-04-20T02:50:30.589Z,99108.53
2023-04-20T02:53:06.695Z,99106.09
2023-04-20T02:55:36.146Z,99107.47
2023-04-20T02:58:11.224Z,99098.38
2023-04-20T03:01:01.882Z,99098.66
2023-04-20T03:03:30.416Z,99094.13
2023-04-20T03:05:58.860Z,99088.16
2023-04-20T03:08:25.811Z,99085.94
2023-04-20T03:10:53.640Z,99085.13
2023-04-20T03:13:20.680Z,99083.72
2023-04-20T03:15:52.276Z,99074.91
2023-04-20T03:18:40.228Z,99071.56
2023-04-20T03:21:07.015Z,99072.47
2023-04-20T03:23:34.285Z,99076.25
2023-04-20T03:26:05.307Z,99064.44
2023-04-20T03:28:41.622Z,99074.03
2023-04-20T03:31:10.861Z,99077.50
2023-04-20T03:33:37.753Z,99071.56
2023-04-20T03:36:05.998Z,99064.66
2023-04-20T03:38:32.742Z,99058.91
2023-04-20T03:53:31.378Z,99042.69
2023-04-20T03:55:59.512Z,99044.53
2023-04-20T03:58:26.675Z,99041.44
2023-04-20T04:01:13.102Z,99050.81
2023-04-20T04:03:44.326Z,99051.03
2023-04-20T04:06:11.957Z,99053.38
2023-04-20T04:08:38.807Z,99052.44
2023-04-20T04:11:05.781Z,99053.59
2023-04-20T04:13:34.416Z,99055.19
2023-04-20T04:16:02.838Z,99045.94
2023-04-20T04:18:32.412Z,99051.47
2023-04-20T04:21:04.586Z,99052.78
2023-04-20T04:23:31.536Z,99054.59
2023-04-20T04:26:05.837Z,99051.44
2023-04-20T04:28:35.578Z,99050.06
2023-04-20T04:31:14.205Z,99042.72
2023-04-20T04:33:41.082Z,99049.78
2023-04-20T04:36:11.027Z,99040.88
2023-04-20T04:38:39.397Z,99048.88
2023-04-20T04:41:06.150Z,99054.69
2023-04-20T04:43:33.830Z,99046.94
2023-04-20T04:46:10.388Z,99047.41
2023-04-20T04:48:37.871Z,99042.75
2023-04-20T04:51:05.210Z,99044.97
2023-04-20T04:53:32.152Z,99043.03
2023-04-20T04:55:58.814Z,99040.03
2023-04-20T04:58:25.791Z,99037.50
2023-04-20T05:00:52.855Z,99043.03
2023-04-20T05:03:19.915Z,99042.00
2023-04-20T05:05:46.723Z,99047.25
2023-04-20T05:08:13.361Z,99045.31
2023-04-20T05:10:40.060Z,99042.66
2023-04-20T05:13:06.859Z,99054.69
2023-04-20T05:15:33.825Z,99047.50
2023-04-20T05:18:02.319Z,99059.97
2023-04-20T05:20:29.265Z,99057.06
2023-04-20T05:22:56.024Z,99049.78
2023-04-20T05:25:22.676Z,99052.34
2023-04-20T05:27:49.409Z,99056.28
2023-04-20T05:30:21.430Z,99056.59
2023-04-20T05:32:51.545Z,99064.88
2023-04-20T05:35:19.968Z,99062.09
2023-04-20T05:37:47.903Z,99059.78
2023-04-20T05:40:15.439Z,99051.75
2023-04-20T05:42:42.382Z,99065.25
2023-04-20T05:45:09.864Z,99056.22
2023-04-20T05:47:36.719Z,99062.63
2023-04-20T05:50:04.452Z,99061.91
2023-04-20T05:52:31.417Z,99057.91
2023-04-20T05:54:59.534Z,99067.72
2023-04-20T05:57:26.357Z,99075.22
2023-04-20T05:59:55.426Z,99056.81
2023-04-20T06:02:22.488Z,99059.66
2023-04-20T06:04:49.530Z,99056.59
2023-04-20T06:07:16.294Z,99059.69
2023-04-20T06:09:44.519Z,99060.03
2023-04-20T06:12:11.242Z,99062.19
2023-04-20T06:14:37.936Z,99055.44
2023-04-20T06:17:04.778Z,99057.44
2023-04-20T06:19:31.945Z,99059.91
2023-04-20T06:22:00.807Z,99056.44
2023-04-20T06:24:28.014Z,99049.28
2023-04-20T06:26:55.035Z,99049.09
2023-04-20T06:29:21.854Z,99047.31
2023-04-20T06:31:48.760Z,99051.59
2023-04-20T06:34:16.268Z,99046.13
2023-04-20T06:36:43.839Z,99051.47
2023-04-20T06:39:13.342Z,99054.88
2023-04-20T06:41:40.017Z,99053.78
2023-04-20T06:44:07.420Z,99057.63
2023-04-20T06:46:34.247Z,99048.94
2023-04-20T06:49:01.366Z,99051.41
2023-04-20T06:51:29.167Z,99060.75
2023-04-20T06:53:56.320Z,99052.41
2023-04-20T06:56:23.048Z,99057.03
2023-04-20T06:58:50.026Z,99054.19
2023-04-20T07:01:17.007Z,99060.69
2023-04-20T07:03:44.171Z,99056.59
2023-04-20T07:06:11.819Z,99057.88
2023-04-20T07:08:39.657Z,99060.31
2023-04-20T07:11:06.429Z,99063.41
2023-04-20T07:13:33.832Z,99061.31
2023-04-20T07:16:01.224Z,99061.97
2023-04-20T07:18:28.216Z,99053.28
2023-04-20T07:20:55.132Z,99053.16
2023-04-20T07:23:21.827Z,99058.97
2023-04-20T07:25:48.624Z,99056.06
2023-04-20T07:28:15.453Z,99056.13
2023-04-20T07:30:43.367Z,99047.00
2023-04-20T07:33:11.191Z,99049.44
2023-04-20T07:35:38.061Z,99047.75
2023-04-20T07:38:04.877Z,99051.78
2023-04-20T07:40:31.645Z,99055.94
2023-04-20T07:42:58.413Z,99054.59
2023-04-20T07:45:25.269Z,99057.66
2023-04-20T07:47:54.113Z,99056.13
2023-04-20T07:50:21.031Z,99049.59
2023-04-20T07:52:47.716Z,99064.91
2023-04-20T07:55:15.655Z,99057.69
2023-04-20T07:57:42.585Z,99054.97
2023-04-20T08:00:10.213Z,99055.47
2023-04-20T08:02:39.988Z,99059.38
2023-04-20T08:05:08.808Z,99053.81
2023-04-20T08:07:36.207Z,99056.91
2023-04-20T08:10:03.163Z,99048.06
2023-04-20T08:12:29.932Z,99041.03
2023-04-20T08:15:00.619Z,99038.13
2023-04-20T08:17:28.179Z,99028.28
2023-04-20T08:19:55.139Z,99034.19
2023-04-20T08:22:21.918Z,99036.06
2023-04-20T08:24:48.933Z,99023.75
2023-04-20T08:27:15.721Z,99025.03
2023-04-20T08:29:42.425Z,99029.75
2023-04-20T08:32:09.377Z,99017.88
2023-04-20T08:34:36.390Z,99030.94
2023-04-20T08:37:03.688Z,99023.78
2023-04-20T08:39:30.498Z,99013.31
2023-04-20T08:41:57.727Z,99009.06
2023-04-20T08:44:24.966Z,99002.06
2023-04-20T08:46:51.849Z,99004.16
2023-04-20T08:49:19.851Z,99009.84
2023-04-20T08:51:47.924Z,98996.59
2023-04-20T08:54:14.999Z,99005.44
2023-04-20T08:56:47.568Z,98999.66
2023-04-20T08:59:15.606Z,98993.44
2023-04-20T09:01:43.284Z,98982.91
2023-04-20T09:04:22.030Z,98999.84
2023-04-20T09:06:51.724Z,98994.59
2023-04-20T09:09:19.769Z,98999.47
2023-04-20T09:11:47.071Z,98990.50
2023-04-20T09:14:19.478Z,98996.69
2023-04-20T09:17:05.128Z,98997.56
2023-04-20T09:19:32.123Z,98992.59
2023-04-20T09:22:01.268Z,98989.63
2023-04-20T09:24:35.734Z,98991.19
2023-04-20T09:27:15.029Z,98978.63
2023-04-20T09:29:41.747Z,98982.97
2023-04-20T09:32:08.715Z,98983.66
2023-04-20T09:34:45.145Z,98984.25
2023-04-20T09:37:15.930Z,98972.94
2023-04-20T09:39:47.047Z,98982.13
2023-04-20T09:42:15.700Z,98970.19
2023-04-20T09:44:43.339Z,98967.31
2023-04-20T09:47:21.442Z,98963.06
2023-04-20T09:49:48.416Z,98961.09
2023-04-20T09:52:18.361Z,98963.81
2023-04-20T09:54:45.401Z,98959.97
2023-04-20T09:57:13.912Z,98965.91
2023-04-20T09:59:46.812Z,98965.50
2023-04-20T10:02:14.405Z,98963.31
2023-04-20T10:04:57.417Z,98961.66
2023-04-20T10:07:28.219Z,98963.06
2023-04-20T10:10:06.484Z,98951.91
2023-04-20T10:12:33.668Z,98956.06
2023-04-20T10:15:01.332Z,98954.69
2023-04-20T10:17:32.646Z,98949.72
2023-04-20T10:19:59.656Z,98947.53
2023-04-20T10:22:33.468Z,98948.13
2023-04-20T10:25:14.591Z,98947.28
2023-04-20T10:27:57.273Z,98943.31
2023-04-20T10:30:26.067Z,98941.91
2023-04-20T10:33:11.359Z,98936.72
2023-04-20T10:35:55.277Z,98935.22
2023-04-20T10:38:33.109Z,98935.88
2023-04-20T10:41:10.445Z,98929.94
2023-04-20T10:43:42.079Z,98939.09
2023-04-20T10:46:23.588Z,98927.59
2023-04-20T10:48:58.363Z,98922.06
2023-04-20T10:51:26.225Z,98916.28
2023-04-20T10:54:08.378Z,98907.41
2023-04-20T10:56:40.146Z,98910.22
2023-04-20T10:59:14.465Z,98916.53
2023-04-20T11:01:41.858Z,98915.97
2023-04-20T11:04:10.656Z,98907.75
2023-04-20T11:06:41.997Z,98905.84
2023-04-20T11:09:19.786Z,98897.00
2023-04-20T11:11:46.989Z,98907.25
2023-04-20T11:14:13.936Z,98891.00
2023-04-20T11:16:50.741Z,98889.16
2023-04-20T11:19:37.081Z,98874.47
2023-04-20T11:22:06.365Z,98884.06
2023-04-20T11:24:34.590Z,98873.06
2023-04-20T11:27:02.330Z,98866.06
2023-04-20T11:29:30.207Z,98876.84
2023-04-20T11:31:57.645Z,98873.56
2023-04-20T11:34:24.448Z,98898.28
2023-04-20T11:36:51.595Z,98883.44
2023-04-20T11:39:29.622Z,98866.50
2023-04-20T11:41:57.284Z,98851.41
2023-04-20T11:44:25.968Z,98852.06
2023-04-20T11:46:57.049Z,98851.78
2023-04-20T11:49:25.517Z,98839.88
2023-04-20T11:51:52.365Z,98854.31
2023-04-20T11:54:19.273Z,98845.94
2023-04-20T11:56:46.579Z,98849.84
2023-04-20T11:59:19.734Z,98854.00
2023-04-20T12:01:47.863Z,98863.59
2023-04-20T12:04:15.645Z,98860.97
2023-04-20T12:06:42.743Z,98855.25
2023-04-20T12:09:09.680Z,98856.25
2023-04-20T12:11:36.368Z,98857.41
2023-04-20T12:14:04.546Z,98843.19
2023-04-20T12:16:31.744Z,98851.53
2023-04-20T12:18:58.583Z,98842.91
2023-04-20T12:21:25.375Z,98838.94
2023-04-20T12:23:52.611Z,98834.25
2023-04-20T12:26:19.354Z,98831.94
2023-04-20T12:28:46.012Z,98839.47
2023-04-20T12:31:12.838Z,98831.72
2023-04-20T12:33:39.615Z,98836.88
2023-04-20T12:36:06.645Z,98838.44
2023-04-20T12:38:33.535Z,98836.25
2023-04-20T12:41:00.567Z,98848.16
2023-04-20T12:43:27.401Z,98847.19
2023-04-20T12:45:54.344Z,98844.78
2023-04-20T12:48:21.446Z,98865.50
2023-04-20T12:50:48.425Z,98863.72
2023-04-20T12:53:15.243Z,98858.41
2023-04-20T12:55:42.127Z,98848.34
2023-04-20T12:58:08.971Z,98839.75
2023-04-20T13:00:36.739Z,98848.25
2023-04-20T13:03:04.339Z,98843.31
2023-04-20T13:05:31.134Z,98837.31
2023-04-20T13:07:57.849Z,98836.66
2023-04-20T13:10:24.519Z,98828.88
2023-04-20T13:12:52.550Z,98838.34
2023-04-20T13:15:31.850Z,98826.28
2023-04-20T13:18:06.087Z,98828.44
2023-04-20T13:20:33.039Z,98832.31
2023-04-20T13:23:01.389Z,98840.38
2023-04-20T13:25:32.639Z,98834.09
2023-04-20T13:28:00.955Z,98844.56
2023-04-20T13:30:27.776Z,98838.09
2023-04-20T13:32:54.566Z,98845.06
2023-04-20T13:35:21.704Z,98839.16
2023-04-20T13:37:48.505Z,98834.25
2023-04-20T13:40:15.377Z,98828.72
2023-04-20T13:42:42.564Z,98819.38
2023-04-20T13:45:10.383Z,98834.50
2023-04-20T13:47:38.931Z,98837.47
2023-04-20T13:50:07.415Z,98837.50
2023-04-20T13:52:34.500Z,98849.34
2023-04-20T13:55:01.378Z,98854.22
2023-04-20T13:57:28.155Z,98855.28
2023-04-20T13:59:54.911Z,98857.31
2023-04-20T14:02:21.708Z,98860.94
2023-04-20T14:04:48.902Z,98855.78
2023-04-20T14:07:15.766Z,98865.56
2023-04-20T14:09:44.351Z,98850.81
2023-04-20T14:12:11.722Z,98843.63
2023-04-20T14:14:38.825Z,98848.19
2023-04-20T14:17:05.677Z,98862.88
2023-04-20T14:19:32.647Z,98868.66
2023-04-20T14:21:59.433Z,98866.78
2023-04-20T14:24:26.224Z,98858.25
2023-04-20T14:26:53.062Z,98862.38
2023-04-20T14:29:20.138Z,98863.81
2023-04-20T14:31:46.970Z,98858.41
2023-04-20T14:34:14.262Z,98856.16
2023-04-20T14:36:41.202Z,98856.25
2023-04-20T14:39:08.283Z,98850.00
2023-04-20T14:41:35.360Z,98845.88
2023-04-20T14:44:02.236Z,98845.56
2023-04-20T14:46:29.137Z,98839.03
2023-04-20T14:48:56.080Z,98847.88
2023-04-20T14:51:22.897Z,98835.56
2023-04-20T14:53:49.901Z,98835.72
2023-04-20T14:56:16.845Z,98846.50
2023-04-20T14:58:43.616Z,98840.88
2023-04-20T15:01:11.276Z,98838.16
2023-04-20T15:03:38.243Z,98851.75
2023-04-20T15:06:05.363Z,98855.22
2023-04-20T15:08:32.209Z,98860.38
2023-04-20T15:10:59.316Z,98858.53
2023-04-20T15:13:26.249Z,98859.50
2023-04-20T15:15:55.344Z,98850.63
2023-04-20T15:18:22.540Z,98844.22
2023-04-20T15:20:52.485Z,98846.47
2023-04-20T15:23:19.882Z,98835.91
2023-04-20T15:25:46.720Z,98835.69
2023-04-20T15:28:13.484Z,98837.66
2023-04-20T15:30:40.621Z,98828.28
2023-04-20T15:33:07.460Z,98819.38
2023-04-20T15:35:35.170Z,98820.81
2023-04-20T15:38:02.927Z,98824.56
2023-04-20T15:40:29.962Z,98824.88
2023-04-20T15:42:56.762Z,98827.97
2023-04-20T15:45:23.477Z,98826.97
2023-04-20T15:47:51.433Z,98828.09
2023-04-20T15:50:18.323Z,98817.88
2023-04-20T15:52:45.793Z,98822.84
2023-04-20T15:55:12.630Z,98829.84
2023-04-20T15:57:39.559Z,98827.72
2023-04-20T16:00:08.248Z,98825.22
2023-04-20T16:02:38.488Z,98829.84
2023-04-20T16:05:07.114Z,98832.03
2023-04-20T16:07:33.901Z,98827.75
2023-04-20T16:10:02.124Z,98831.09
2023-04-20T16:12:29.264Z,98836.53
2023-04-20T16:14:57.298Z,98828.84
2023-04-20T16:17:24.247Z,98831.13
2023-04-20T16:19:51.118Z,98826.56
2023-04-20T16:22:17.987Z,98830.84
2023-04-20T16:24:45.050Z,98833.84
2023-04-20T16:27:11.836Z,98829.34
2023-04-20T16:29:38.777Z,98831.34
2023-04-20T16:32:06.587Z,98831.78
2023-04-20T16:34:33.425Z,98842.38
2023-04-20T16:37:00.140Z,98846.56
2023-04-20T16:39:26.903Z,98851.56
2023-04-20T16:41:54.158Z,98838.97
2023-04-20T16:44:21.234Z,98842.25
2023-04-20T16:46:51.331Z,98846.59
2023-04-20T16:49:19.462Z,98843.94
2023-04-20T16:51:46.136Z,98834.59
2023-04-20T16:54:12.979Z,98836.84
2023-04-20T16:56:40.817Z,98841.53
2023-04-20T16:59:08.150Z,98836.22
2023-04-20T17:01:35.679Z,98841.97
2023-04-20T17:04:02.722Z,98840.38
2023-04-20T17:06:29.585Z,98847.84
2023-04-20T17:09:01.382Z,98845.78
2023-04-20T17:11:28.193Z,98838.41
2023-04-20T17:13:54.917Z,98841.88
2023-04-20T17:16:21.658Z,98838.66
2023-04-20T17:18:48.678Z,98845.59
2023-04-20T17:21:15.430Z,98839.16
2023-04-20T17:23:42.111Z,98847.44
2023-04-20T17:26:09.154Z,98840.22
2023-04-20T17:28:38.136Z,98839.13
2023-04-20T17:31:04.925Z,98837.09
2023-04-20T17:33:31.778Z,98838.81
2023-04-20T17:36:00.136Z,98839.72
2023-04-20T17:38:26.851Z,98832.97
2023-04-20T17:40:53.792Z,98839.88
2023-04-20T17:43:20.508Z,98832.72
2023-04-20T17:45:50.751Z,98832.09
2023-04-20T17:48:17.557Z,98834.28
2023-04-20T17:50:48.954Z,98839.34
2023-04-20T17:53:15.636Z,98837.22
2023-04-20T17:55:42.389Z,98831.41
2023-04-20T17:58:09.118Z,98837.25
2023-04-20T18:00:35.996Z,98838.00
2023-04-20T18:03:02.865Z,98838.81
2023-04-20T18:05:30.069Z,98841.34
2023-04-20T18:07:56.805Z,98839.63
2023-04-20T18:10:23.480Z,98842.63
2023-04-20T18:12:50.391Z,98846.06
2023-04-20T18:15:17.138Z,98846.88
2023-04-20T18:17:44.666Z,98842.22
2023-04-20T18:20:12.115Z,98841.00
2023-04-20T18:22:39.196Z,98840.41
2023-04-20T18:25:06.476Z,98845.97
2023-04-20T18:27:33.346Z,98845.91
2023-04-20T18:30:00.293Z,98842.41
2023-04-20T18:32:27.651Z,98847.19
2023-04-20T18:34:54.385Z,98857.69
2023-04-20T18:37:21.284Z,98847.19
2023-04-20T18:39:48.047Z,98849.78
2023-04-20T18:42:14.847Z,98848.00
2023-04-20T18:44:41.574Z,98852.28
2023-04-20T18:47:08.519Z,98846.88
2023-04-20T18:49:35.653Z,98848.56
2023-04-20T18:52:02.788Z,98851.09
2023-04-20T18:54:29.481Z,98855.56
2023-04-20T18:56:56.674Z,98858.97
2023-04-20T18:59:24.697Z,98866.66
2023-04-20T19:01:52.540Z,98873.63
2023-04-20T19:04:20.190Z,98874.03
2023-04-20T19:06:47.074Z,98871.72
2023-04-20T19:09:14.125Z,98872.44
2023-04-20T19:11:40.821Z,98875.91
2023-04-20T19:14:07.735Z,98882.84
2023-04-20T19:16:34.848Z,98879.75
2023-04-20T19:19:01.648Z,98878.88
2023-04-20T19:21:28.377Z,98882.72
2023-04-20T19:23:56.318Z,98886.75
2023-04-20T19:26:24.432Z,98890.72
2023-04-20T19:28:51.545Z,98882.69
2023-04-20T19:31:18.378Z,98885.41
2023-04-20T19:33:45.319Z,98892.81
2023-04-20T19:36:12.005Z,98890.97
2023-04-20T19:38:39.073Z,98894.41
2023-04-20T19:41:06.285Z,98892.38
2023-04-20T19:43:33.087Z,98887.06
2023-04-20T19:45:59.947Z,98884.91
2023-04-20T19:49:05.706Z,98875.91
2023-04-20T19:51:32.845Z,98869.16
2023-04-20T19:54:01.704Z,98863.88
2023-04-20T19:56:28.469Z,98869.97
2023-04-20T19:58:55.172Z,98862.84
2023-04-20T20:01:21.865Z,98867.19
2023-04-20T20:03:48.767Z,98868.41
2023-04-20T20:06:15.823Z,98853.81
2023-04-20T20:08:42.679Z,98857.22
2023-04-20T20:11:09.547Z,98866.81
2023-04-20T20:13:36.343Z,98868.97
2023-04-20T20:16:04.099Z,98861.03
2023-04-20T20:18:31.228Z,98867.31
2023-04-20T20:20:57.886Z,98863.47
2023-04-20T20:23:24.533Z,98865.50
2023-04-20T20:25:51.426Z,98863.16
2023-04-20T20:28:18.256Z,98860.13
2023-04-20T20:30:45.394Z,98861.00
2023-04-20T20:33:12.850Z,98859.75
2023-04-20T20:35:39.927Z,98860.09
2023-04-20T20:38:07.643Z,98858.97
2023-04-20T20:40:35.512Z,98860.16
2023-04-20T20:43:02.510Z,98858.28
2023-04-20T20:45:29.978Z,98859.13
2023-04-20T20:47:56.876Z,98855.03
2023-04-20T20:50:24.456Z,98856.81
2023-04-20T20:52:51.154Z,98857.72
2023-04-20T20:59:36.132Z,98859.44
2023-04-20T21:02:03.655Z,98857.22
2023-04-20T21:04:56.883Z,98848.72
2023-04-20T21:07:23.509Z,98848.09
2023-04-20T21:09:50.619Z,98848.19
2023-04-20T21:12:17.241Z,98852.63
2023-04-20T21:14:43.872Z,98858.31
2023-04-20T21:17:11.007Z,98853.41
2023-04-20T21:19:37.697Z,98854.69
2023-04-20T21:22:04.347Z,98852.00
2023-04-20T21:24:31.049Z,98860.47
2023-04-20T21:26:58.121Z,98860.47
2023-04-20T21:29:24.810Z,98853.88
2023-04-20T21:31:52.254Z,98852.88
2023-04-20T21:34:19.097Z,98845.94
2023-04-20T21:36:45.894Z,98850.38
2023-04-20T21:39:12.647Z,98854.06
2023-04-20T21:41:39.333Z,98852.34
2023-04-20T21:44:05.991Z,98859.25
2023-04-20T21:46:33.297Z,98852.00
2023-04-20T21:49:00.401Z,98859.28
2023-04-20T21:51:27.815Z,98864.28
2023-04-20T21:53:54.569Z,98864.38
2023-04-20T21:56:21.558Z,98867.91
2023-04-20T21:58:48.749Z,98865.13
2023-04-20T22:01:15.527Z,98872.59
2023-04-20T22:03:42.472Z,98873.03
2023-04-20T22:06:09.352Z,98871.97
2023-04-20T22:08:39.919Z,98869.16
2023-04-20T22:11:07.184Z,98864.41
2023-04-20T22:13:34.257Z,98864.59
2023-04-20T22:16:01.019Z,98862.88
2023-04-20T22:18:27.965Z,98863.94
2023-04-20T22:20:54.720Z,98864.47
2023-04-20T22:23:21.513Z,98862.13
2023-04-20T22:25:48.125Z,98857.22
2023-04-20T22:28:15.371Z,98857.63
2023-04-20T22:30:42.860Z,98852.03
2023-04-20T22:33:09.787Z,98853.88
2023-04-20T22:35:36.571Z,98858.84
2023-04-20T22:38:03.248Z,98853.91
2023-04-20T22:40:30.069Z,98851.28
2023-04-20T22:42:56.707Z,98838.22
2023-04-20T22:45:23.299Z,98845.56
2023-04-20T22:47:50.011Z,98846.63
2023-04-20T22:50:16.930Z,98836.00
2023-04-20T22:52:43.893Z,98835.16
2023-04-20T22:55:10.993Z,98838.16
2023-04-20T22:57:39.028Z,98831.09
2023-04-20T23:00:10.461Z,98820.84
2023-04-20T23:02:37.901Z,98823.28
2023-04-20T23:05:05.957Z,98822.88
2023-04-20T23:07:33.423Z,98816.53
2023-04-20T23:10:01.476Z,98819.16
2023-04-20T23:12:29.555Z,98819.53
2023-04-20T23:14:56.812Z,98818.22
2023-04-20T23:17:23.730Z,98808.06
2023-04-20T23:19:51.280Z,98810.06
2023-04-20T23:22:18.576Z,98807.50
2023-04-20T23:24:45.431Z,98809.78
2023-04-20T23:27:12.130Z,98806.03
2023-04-20T23:29:38.829Z,98809.00
2023-04-20T23:32:06.096Z,98799.34
2023-04-20T23:34:33.145Z,98803.81
2023-04-20T23:36:59.843Z,98791.34
2023-04-20T23:39:26.757Z,98793.03
2023-04-20T23:41:53.597Z,98790.41
2023-04-20T23:44:20.274Z,98792.28
2023-04-20T23:46:46.946Z,98798.34
2023-04-20T23:49:13.764Z,98797.69
2023-04-20T23:51:40.883Z,98796.78
2023-04-20T23:54:07.557Z,98788.09
2023-04-20T23:56:34.481Z,98791.66
2023-04-20T23:59:01.212Z,98790.81
